createdAt,value
2019-03-12T00:00:33.414Z,68.60
2019-03-12T00:02:54.699Z,68.90
2019-03-12T00:05:15.897Z,69.00
2019-03-12T00:07:37.434Z,69.30
2019-03-12T00:09:58.640Z,69.20
2019-03-12T00:12:19.868Z,69.20
2019-03-12T00:14:41.064Z,68.90
2019-03-12T00:17:02.272Z,69.00
2019-03-12T00:19:23.461Z,69.20
2019-03-12T00:21:44.744Z,69.30
2019-03-12T00:24:05.968Z,69.50
2019-03-12T00:26:27.189Z,69.20
2019-03-12T00:28:48.389Z,69.60
2019-03-12T00:31:10.604Z,69.50
2019-03-12T00:33:31.775Z,69.50
2019-03-12T00:35:53.246Z,69.60
2019-03-12T00:38:14.432Z,69.50
2019-03-12T00:40:35.628Z,69.80
2019-03-12T00:42:56.821Z,70.70
2019-03-12T00:45:18.021Z,69.80
2019-03-12T00:47:39.279Z,70.70
2019-03-12T00:50:00.525Z,70.00
2019-03-12T00:52:21.756Z,70.10
2019-03-12T00:54:42.933Z,70.30
2019-03-12T00:57:04.150Z,70.30
2019-03-12T00:59:26.640Z,70.40
2019-03-12T01:01:47.985Z,70.60
2019-03-12T01:04:09.265Z,70.50
2019-03-12T01:06:30.480Z,70.70
2019-03-12T01:08:51.730Z,70.70
2019-03-12T01:11:13.038Z,70.60
2019-03-12T01:13:34.258Z,70.60
2019-03-12T01:15:55.574Z,70.70
2019-03-12T01:18:16.773Z,70.90
2019-03-12T01:20:38.005Z,71.20
2019-03-12T01:22:59.305Z,71.10
2019-03-12T01:25:20.501Z,71.80
2019-03-12T01:27:41.727Z,71.10
2019-03-12T01:30:12.294Z,71.50
2019-03-12T01:32:33.508Z,71.60
2019-03-12T01:34:54.697Z,71.40
2019-03-12T01:37:15.993Z,71.40
2019-03-12T01:39:37.165Z,71.40
2019-03-12T01:41:58.390Z,71.40
2019-03-12T01:44:19.597Z,71.40
2019-03-12T01:46:40.966Z,71.50
2019-03-12T01:49:02.221Z,71.50
2019-03-12T01:51:23.417Z,71.40
2019-03-12T01:53:44.626Z,71.60
2019-03-12T01:56:06.076Z,71.80
2019-03-12T01:58:27.280Z,71.80
2019-03-12T02:00:48.561Z,71.80
2019-03-12T02:03:09.776Z,71.90
2019-03-12T02:05:31.176Z,72.10
2019-03-12T02:07:52.404Z,72.00
2019-03-12T02:10:13.901Z,72.10
2019-03-12T02:12:35.315Z,72.10
2019-03-12T02:14:56.496Z,72.10
2019-03-12T02:17:17.704Z,72.30
2019-03-12T02:19:38.895Z,72.70
2019-03-12T02:22:00.332Z,72.50
2019-03-12T02:24:21.613Z,72.50
2019-03-12T02:26:42.805Z,72.70
2019-03-12T02:29:04.502Z,72.90
2019-03-12T02:31:25.705Z,73.20
2019-03-12T02:33:46.917Z,73.20
2019-03-12T02:36:08.101Z,73.40
2019-03-12T02:38:29.314Z,73.40
2019-03-12T02:40:50.624Z,73.50
2019-03-12T02:43:11.882Z,73.50
2019-03-12T02:45:33.116Z,73.40
2019-03-12T02:47:54.365Z,73.60
2019-03-12T02:50:15.572Z,73.50
2019-03-12T02:52:36.873Z,73.70
2019-03-12T02:54:59.250Z,73.80
2019-03-12T02:57:21.536Z,73.60
2019-03-12T02:59:42.746Z,73.60
2019-03-12T03:02:03.963Z,73.70
2019-03-12T03:04:25.287Z,73.90
2019-03-12T03:06:48.374Z,73.90
2019-03-12T03:09:09.576Z,73.80
2019-03-12T03:11:31.270Z,73.70
2019-03-12T03:13:52.480Z,73.70
2019-03-12T03:16:13.653Z,73.70
2019-03-12T03:18:34.931Z,74.10
2019-03-12T03:20:56.104Z,74.40
2019-03-12T03:23:17.298Z,74.40
2019-03-12T03:25:38.501Z,74.80
2019-03-12T03:27:59.855Z,74.80
2019-03-12T03:30:22.833Z,75.10
2019-03-12T03:32:44.157Z,75.30
2019-03-12T03:35:05.643Z,75.30
2019-03-12T03:37:26.931Z,75.70
2019-03-12T03:39:48.141Z,75.60
2019-03-12T03:42:09.358Z,75.60
2019-03-12T03:44:30.556Z,75.70
2019-03-12T03:46:51.786Z,75.70
2019-03-12T03:49:12.983Z,75.50
2019-03-12T03:51:34.176Z,75.80
2019-03-12T03:53:55.414Z,75.90
2019-03-12T03:56:16.604Z,75.90
2019-03-12T03:58:37.802Z,75.90
2019-03-12T04:00:59.102Z,75.90
2019-03-12T04:03:20.405Z,75.90
2019-03-12T04:05:41.795Z,76.10
2019-03-12T04:08:02.983Z,76.00
2019-03-12T04:10:24.376Z,76.40
2019-03-12T04:12:45.688Z,76.30
2019-03-12T04:15:13.077Z,76.50
2019-03-12T04:17:34.335Z,76.70
2019-03-12T04:19:55.541Z,76.90
2019-03-12T04:22:16.723Z,77.20
2019-03-12T04:24:37.960Z,77.40
2019-03-12T04:26:59.254Z,77.50
2019-03-12T04:29:20.460Z,77.30
2019-03-12T04:31:42.846Z,77.30
2019-03-12T04:34:07.299Z,77.30
2019-03-12T04:36:28.497Z,77.20
2019-03-12T04:38:56.205Z,77.00
2019-03-12T04:41:17.414Z,76.80
2019-03-12T04:43:38.605Z,76.80
2019-03-12T04:45:59.816Z,77.00
2019-03-12T04:48:20.997Z,77.10
2019-03-12T04:50:42.214Z,77.30
2019-03-12T04:53:03.430Z,77.10
2019-03-12T04:55:24.932Z,76.90
2019-03-12T04:57:46.129Z,77.70
2019-03-12T05:00:18.718Z,77.00
2019-03-12T05:02:40.039Z,77.00
2019-03-12T05:05:01.237Z,77.00
2019-03-12T05:07:22.446Z,77.10
2019-03-12T05:09:43.656Z,77.20
2019-03-12T05:12:04.947Z,77.40
2019-03-12T05:14:28.473Z,77.40
2019-03-12T05:16:51.586Z,77.80
2019-03-12T05:19:12.998Z,78.20
2019-03-12T05:21:34.237Z,78.30
2019-03-12T05:23:55.420Z,78.70
2019-03-12T05:26:16.650Z,78.80
2019-03-12T05:28:37.933Z,79.00
2019-03-12T05:30:59.377Z,79.30
2019-03-12T05:33:20.569Z,79.30
2019-03-12T05:35:41.797Z,79.50
2019-03-12T05:38:03.057Z,79.80
2019-03-12T05:40:24.260Z,80.00
2019-03-12T05:42:45.556Z,80.10
2019-03-12T05:45:12.546Z,80.20
2019-03-12T05:47:33.728Z,80.20
2019-03-12T05:49:54.919Z,80.20
2019-03-12T05:52:16.113Z,80.30
2019-03-12T05:54:37.301Z,80.20
2019-03-12T05:56:58.516Z,80.00
2019-03-12T05:59:19.754Z,80.00
2019-03-12T06:01:40.962Z,80.00
2019-03-12T06:04:02.146Z,80.20
2019-03-12T06:06:23.342Z,80.30
2019-03-12T06:08:44.644Z,80.10
2019-03-12T06:11:05.949Z,80.20
2019-03-12T06:13:27.186Z,80.10
2019-03-12T06:15:48.631Z,80.20
2019-03-12T06:18:09.847Z,79.90
2019-03-12T06:20:31.049Z,80.20
2019-03-12T06:22:52.534Z,80.30
2019-03-12T06:25:13.856Z,80.30
2019-03-12T06:27:35.097Z,80.10
2019-03-12T06:29:56.523Z,79.90
2019-03-12T06:32:22.679Z,79.80
2019-03-12T06:34:45.942Z,79.60
2019-03-12T06:43:04.182Z,78.70
2019-03-12T06:45:32.909Z,78.80
2019-03-12T06:48:04.708Z,78.70
2019-03-12T06:50:33.926Z,78.00
2019-03-12T06:53:12.437Z,78.50
2019-03-12T06:55:41.075Z,77.70
2019-03-12T06:58:25.510Z,77.60
2019-03-12T07:01:07.993Z,77.20
2019-03-12T07:03:39.137Z,77.00
2019-03-12T07:06:02.241Z,76.80
2019-03-12T07:08:36.963Z,75.70
2019-03-12T07:11:08.941Z,75.10
2019-03-12T07:13:34.968Z,74.70
2019-03-12T07:16:04.686Z,74.00
2019-03-12T07:18:44.356Z,73.90
2019-03-12T07:21:19.868Z,73.40
2019-03-12T07:23:52.300Z,72.90
2019-03-12T07:26:16.719Z,72.00
2019-03-12T07:28:50.325Z,72.30
2019-03-12T07:31:27.135Z,72.20
2019-03-12T07:33:56.706Z,71.70
2019-03-12T07:36:37.877Z,70.70
2019-03-12T07:39:19.067Z,69.90
2019-03-12T07:41:45.010Z,69.60
2019-03-12T07:44:10.896Z,69.40
2019-03-12T07:46:43.001Z,69.20
2019-03-12T07:49:18.051Z,68.10
2019-03-12T07:54:35.006Z,66.20
2019-03-12T07:56:58.139Z,64.90
2019-03-12T07:59:27.204Z,63.90
2019-03-12T08:01:50.313Z,62.90
2019-03-12T08:04:19.256Z,62.10
2019-03-12T08:06:45.726Z,62.30
2019-03-12T08:09:25.711Z,61.50
2019-03-12T08:11:49.113Z,61.60
2019-03-12T08:14:15.424Z,61.60
2019-03-12T08:16:50.526Z,61.90
2019-03-12T08:19:16.190Z,61.10
2019-03-12T08:21:39.302Z,60.00
2019-03-12T08:24:18.719Z,60.60
2019-03-12T08:26:41.974Z,60.30
2019-03-12T08:29:05.140Z,60.10
2019-03-12T08:31:37.428Z,59.50
2019-03-12T08:34:03.377Z,58.80
2019-03-12T08:36:26.512Z,58.90
2019-03-12T08:38:52.129Z,58.20
2019-03-12T08:41:15.216Z,58.00
2019-03-12T08:43:41.578Z,57.20
2019-03-12T08:46:10.469Z,56.60
2019-03-12T08:48:36.434Z,55.40
2019-03-12T08:50:59.610Z,55.90
2019-03-12T08:53:41.069Z,55.60
2019-03-12T08:56:07.254Z,55.90
2019-03-12T08:58:33.564Z,54.30
2019-03-12T09:00:57.005Z,54.90
2019-03-12T09:03:36.721Z,53.70
2019-03-12T09:06:08.808Z,53.20
2019-03-12T09:08:43.859Z,53.60
2019-03-12T09:11:15.779Z,52.50
2019-03-12T09:13:47.825Z,52.50
2019-03-12T09:16:27.713Z,52.00
2019-03-12T09:18:56.604Z,50.80
2019-03-12T09:21:19.881Z,49.70
2019-03-12T09:23:45.833Z,48.30
2019-03-12T09:26:08.934Z,48.20
2019-03-12T09:28:47.175Z,48.40
2019-03-12T09:31:22.434Z,48.10
2019-03-12T09:33:48.668Z,47.30
2019-03-12T09:36:27.220Z,47.60
2019-03-12T09:39:07.051Z,46.80
2019-03-12T09:41:32.042Z,47.80
2019-03-12T09:44:03.954Z,48.50
2019-03-12T09:46:33.188Z,47.50
2019-03-12T09:48:56.415Z,47.50
2019-03-12T09:51:34.349Z,47.80
2019-03-12T09:54:03.814Z,48.00
2019-03-12T09:56:41.732Z,48.20
2019-03-12T09:59:07.846Z,47.80
2019-03-12T10:01:37.173Z,47.90
2019-03-12T10:04:06.125Z,47.80
2019-03-12T10:06:34.910Z,48.20
2019-03-12T10:08:58.044Z,47.20
2019-03-12T10:11:37.678Z,46.90
2019-03-12T10:14:03.756Z,46.90
2019-03-12T10:16:29.714Z,46.30
2019-03-12T10:19:07.846Z,47.00
2019-03-12T10:21:47.621Z,46.30
2019-03-12T10:24:10.726Z,45.20
2019-03-12T10:26:39.353Z,44.70
2019-03-12T10:29:02.528Z,44.30
2019-03-12T10:31:25.753Z,44.60
2019-03-12T10:33:57.846Z,44.70
2019-03-12T10:36:27.146Z,44.80
2019-03-12T10:39:30.399Z,43.90
2019-03-12T10:42:02.404Z,42.00
2019-03-12T10:44:25.551Z,42.00
2019-03-12T10:46:48.744Z,40.90
2019-03-12T10:49:11.357Z,41.20
2019-03-12T10:51:32.557Z,41.20
2019-03-12T10:53:53.866Z,41.10
2019-03-12T10:56:15.104Z,40.80
2019-03-12T10:58:36.327Z,40.20
2019-03-12T11:00:57.522Z,39.60
2019-03-12T11:03:18.746Z,39.70
2019-03-12T11:05:45.749Z,38.30
2019-03-12T11:08:06.583Z,38.30
2019-03-12T11:10:26.461Z,38.10
2019-03-12T11:12:47.774Z,37.60
2019-03-12T11:15:10.187Z,37.20
2019-03-12T11:17:31.723Z,37.80
2019-03-12T11:19:52.964Z,38.00
2019-03-12T11:22:14.264Z,38.40
2019-03-12T11:24:35.474Z,38.00
2019-03-12T11:26:57.885Z,37.50
2019-03-12T11:29:19.073Z,37.00
2019-03-12T11:31:40.319Z,35.40
2019-03-12T11:34:01.498Z,35.40
2019-03-12T11:36:22.910Z,34.50
2019-03-12T11:38:44.626Z,36.30
2019-03-12T11:41:05.943Z,36.40
2019-03-12T11:43:27.217Z,36.40
2019-03-12T11:45:48.842Z,36.70
2019-03-12T11:48:10.343Z,35.50
2019-03-12T11:50:31.881Z,35.30
2019-03-12T11:52:57.177Z,35.50
2019-03-12T11:55:16.416Z,36.20
2019-03-12T11:57:37.742Z,35.10
2019-03-12T11:59:59.057Z,35.50
2019-03-12T12:02:20.263Z,35.20
2019-03-12T12:04:41.464Z,35.90
2019-03-12T12:07:02.671Z,35.30
2019-03-12T12:09:23.859Z,35.50
2019-03-12T12:11:45.251Z,36.20
2019-03-12T12:14:06.562Z,35.10
2019-03-12T12:16:27.987Z,34.60
2019-03-12T12:18:49.222Z,34.90
2019-03-12T12:21:10.435Z,32.70
2019-03-12T12:23:31.613Z,33.70
2019-03-12T12:25:52.923Z,33.70
2019-03-12T12:28:14.396Z,33.20
2019-03-12T12:30:35.809Z,32.00
2019-03-12T12:32:57.141Z,32.00
2019-03-12T12:35:18.486Z,32.10
2019-03-12T12:37:40.184Z,32.20
2019-03-12T12:40:01.439Z,32.00
2019-03-12T12:42:23.732Z,31.90
2019-03-12T12:44:45.216Z,32.40
2019-03-12T12:47:06.418Z,32.80
2019-03-12T12:49:27.593Z,31.50
2019-03-12T12:51:48.878Z,32.50
2019-03-12T12:54:10.075Z,32.10
2019-03-12T12:56:31.525Z,32.20
2019-03-12T12:58:52.784Z,32.80
2019-03-12T13:01:13.991Z,33.10
2019-03-12T13:03:35.217Z,32.70
2019-03-12T13:06:10.018Z,32.80
2019-03-12T13:08:31.290Z,33.10
2019-03-12T13:10:52.765Z,33.00
2019-03-12T13:13:13.968Z,32.50
2019-03-12T13:15:35.162Z,33.50
2019-03-12T13:17:56.358Z,34.00
2019-03-12T13:20:17.751Z,33.80
2019-03-12T13:22:38.961Z,33.90
2019-03-12T13:25:00.388Z,34.20
2019-03-12T13:27:21.867Z,34.70
2019-03-12T13:29:43.081Z,34.70
2019-03-12T13:32:13.436Z,34.50
2019-03-12T13:34:27.365Z,34.70
2019-03-12T13:36:48.554Z,35.10
2019-03-12T13:39:09.957Z,34.20
2019-03-12T13:41:31.807Z,34.40
2019-03-12T13:43:53.020Z,34.90
2019-03-12T13:46:14.257Z,34.10
2019-03-12T13:48:35.559Z,33.90
2019-03-12T13:50:56.845Z,34.70
2019-03-12T13:53:18.119Z,34.10
2019-03-12T13:55:39.332Z,33.60
2019-03-12T13:58:00.727Z,33.50
2019-03-12T14:00:23.135Z,33.80
2019-03-12T14:02:44.652Z,32.80
2019-03-12T14:05:07.600Z,32.80
2019-03-12T14:07:29.047Z,32.60
2019-03-12T14:09:50.256Z,32.30
2019-03-12T14:12:11.587Z,32.00
2019-03-12T14:14:32.997Z,31.10
2019-03-12T14:16:54.200Z,30.90
2019-03-12T14:19:15.417Z,31.20
2019-03-12T14:21:38.816Z,30.80
2019-03-12T14:24:00.344Z,30.90
2019-03-12T14:26:21.538Z,30.40
2019-03-12T14:28:42.754Z,30.10
2019-03-12T14:31:18.115Z,28.60
2019-03-12T14:33:39.333Z,28.90
2019-03-12T14:36:00.537Z,27.60
2019-03-12T14:38:21.759Z,27.80
2019-03-12T14:40:43.067Z,27.90
2019-03-12T14:43:04.461Z,27.30
2019-03-12T14:45:27.288Z,27.40
2019-03-12T14:47:48.517Z,27.00
2019-03-12T14:50:13.023Z,26.50
2019-03-12T14:52:34.334Z,25.60
2019-03-12T14:54:55.516Z,26.00
2019-03-12T14:57:16.735Z,25.70
2019-03-12T14:59:37.935Z,25.40
2019-03-12T15:01:59.216Z,26.00
2019-03-12T15:04:20.900Z,25.60
2019-03-12T15:06:42.096Z,25.30
2019-03-12T15:09:06.324Z,25.40
2019-03-12T15:11:29.396Z,25.70
2019-03-12T15:13:50.601Z,24.80
2019-03-12T15:16:12.127Z,24.60
2019-03-12T15:18:33.407Z,23.20
2019-03-12T15:20:54.581Z,22.40
2019-03-12T15:23:15.846Z,23.90
2019-03-12T15:25:37.117Z,24.40
2019-03-12T15:27:58.322Z,25.30
2019-03-12T15:30:23.317Z,24.80
2019-03-12T15:32:44.645Z,24.60
2019-03-12T15:35:06.057Z,24.10
2019-03-12T15:37:27.336Z,24.30
2019-03-12T15:39:48.563Z,24.50
2019-03-12T15:42:09.747Z,24.60
2019-03-12T15:44:30.955Z,24.60
2019-03-12T15:46:52.148Z,24.80
2019-03-12T15:49:13.381Z,25.60
2019-03-12T15:51:34.693Z,25.60
2019-03-12T15:53:55.976Z,25.90
2019-03-12T15:56:17.353Z,25.10
2019-03-12T15:58:38.865Z,25.90
2019-03-12T16:01:02.501Z,25.80
2019-03-12T16:03:24.390Z,26.00
2019-03-12T16:05:45.601Z,26.10
2019-03-12T16:08:06.870Z,26.20
2019-03-12T16:10:28.328Z,25.70
2019-03-12T16:12:49.548Z,25.90
2019-03-12T16:15:15.652Z,26.20
2019-03-12T16:17:36.873Z,26.20
2019-03-12T16:19:58.447Z,26.50
2019-03-12T16:22:21.606Z,27.00
2019-03-12T16:24:42.926Z,27.10
2019-03-12T16:27:04.662Z,27.60
2019-03-12T16:29:25.874Z,27.50
2019-03-12T16:31:47.045Z,27.80
2019-03-12T16:34:08.256Z,27.50
2019-03-12T16:36:29.473Z,27.40
2019-03-12T16:38:50.844Z,27.60
2019-03-12T16:41:12.156Z,27.80
2019-03-12T16:43:33.397Z,28.00
2019-03-12T16:45:54.593Z,28.00
2019-03-12T16:48:16.063Z,28.20
2019-03-12T16:50:38.298Z,28.40
2019-03-12T16:52:59.499Z,28.40
2019-03-12T16:55:20.909Z,28.80
2019-03-12T16:57:43.601Z,28.90
2019-03-12T17:00:10.484Z,29.10
2019-03-12T17:02:32.684Z,29.00
2019-03-12T17:04:53.885Z,29.50
2019-03-12T17:07:15.073Z,29.60
2019-03-12T17:09:36.283Z,29.80
2019-03-12T17:11:57.797Z,29.80
2019-03-12T17:14:18.981Z,28.90
2019-03-12T17:16:40.296Z,29.00
2019-03-12T17:19:01.544Z,29.50
2019-03-12T17:21:23.044Z,29.40
2019-03-12T17:23:44.444Z,30.00
2019-03-12T17:26:05.664Z,30.70
2019-03-12T17:28:26.988Z,31.10
2019-03-12T17:30:48.333Z,30.70
2019-03-12T17:33:09.561Z,31.20
2019-03-12T17:35:35.755Z,31.60
2019-03-12T17:37:57.017Z,32.10
2019-03-12T17:40:19.639Z,32.40
2019-03-12T17:42:40.889Z,33.00
2019-03-12T17:45:04.429Z,33.50
2019-03-12T17:47:25.788Z,33.90
2019-03-12T17:49:46.979Z,35.20
2019-03-12T17:52:08.190Z,35.60
2019-03-12T17:54:31.981Z,37.20
2019-03-12T17:56:52.556Z,38.70
2019-03-12T17:59:13.765Z,38.70
2019-03-12T18:01:35.147Z,39.90
2019-03-12T18:03:56.537Z,40.20
2019-03-12T18:06:17.962Z,41.30
2019-03-12T18:08:39.233Z,42.10
2019-03-12T18:11:00.453Z,42.40
2019-03-12T18:13:21.644Z,42.70
2019-03-12T18:15:42.941Z,42.40
2019-03-12T18:18:04.431Z,42.70
2019-03-12T18:20:25.753Z,42.80
2019-03-12T18:22:48.245Z,43.50
2019-03-12T18:25:12.756Z,44.30
2019-03-12T18:27:33.978Z,44.40
2019-03-12T18:29:55.279Z,44.40
2019-03-12T18:32:16.468Z,44.80
2019-03-12T18:34:37.646Z,45.20
2019-03-12T18:36:58.857Z,46.00
2019-03-12T18:39:20.101Z,45.30
2019-03-12T18:41:41.437Z,44.90
2019-03-12T18:44:02.995Z,45.10
2019-03-12T18:46:24.254Z,45.40
2019-03-12T18:48:45.786Z,44.90
2019-03-12T18:51:06.990Z,45.70
2019-03-12T18:53:28.184Z,45.20
2019-03-12T18:55:53.229Z,45.50
2019-03-12T18:58:14.505Z,44.90
2019-03-12T19:00:38.007Z,44.40
2019-03-12T19:02:59.318Z,44.50
2019-03-12T19:05:20.810Z,44.20
2019-03-12T19:07:42.030Z,44.40
2019-03-12T19:10:13.015Z,44.00
2019-03-12T19:12:33.028Z,43.80
2019-03-12T19:14:54.270Z,43.70
2019-03-12T19:17:15.604Z,43.60
2019-03-12T19:19:36.825Z,44.20
2019-03-12T19:21:58.030Z,43.90
2019-03-12T19:24:19.233Z,43.70
2019-03-12T19:26:40.520Z,43.70
2019-03-12T19:29:01.711Z,44.00
2019-03-12T19:31:34.041Z,44.00
2019-03-12T19:33:56.479Z,44.20
2019-03-12T19:36:17.680Z,44.50
2019-03-12T19:38:39.273Z,43.90
2019-03-12T19:41:00.477Z,44.10
2019-03-12T19:43:25.320Z,44.40
2019-03-12T19:45:46.508Z,44.00
2019-03-12T19:48:07.825Z,44.50
2019-03-12T19:50:29.120Z,44.70
2019-03-12T19:52:50.316Z,44.60
2019-03-12T19:55:17.524Z,43.90
2019-03-12T19:57:40.022Z,43.80
2019-03-12T20:00:06.652Z,43.80
2019-03-12T20:02:29.163Z,43.60
2019-03-12T20:04:50.449Z,44.30
2019-03-12T20:07:11.691Z,43.80
2019-03-12T20:09:36.805Z,43.40
2019-03-12T20:12:22.925Z,43.20
2019-03-12T20:15:13.945Z,43.00
2019-03-12T20:17:46.483Z,43.00
2019-03-12T20:20:31.213Z,43.40
2019-03-12T20:23:20.522Z,44.00
2019-03-12T20:26:09.247Z,44.40
2019-03-12T20:28:34.693Z,44.70
2019-03-12T20:31:11.290Z,45.20
2019-03-12T20:34:08.414Z,45.50
2019-03-12T20:37:07.088Z,45.60
2019-03-12T20:39:54.974Z,46.20
2019-03-12T20:42:44.534Z,46.80
2019-03-12T20:45:26.166Z,46.60
2019-03-12T20:48:07.969Z,43.50
2019-03-12T20:50:49.746Z,41.40
2019-03-12T20:54:04.945Z,38.10
2019-03-12T20:56:36.182Z,37.70
2019-03-12T20:59:33.725Z,36.60
2019-03-12T21:02:22.291Z,35.60
2019-03-12T21:05:12.824Z,34.70
2019-03-12T21:07:41.074Z,34.50
2019-03-12T21:10:40.912Z,33.80
2019-03-12T21:13:34.845Z,33.40
2019-03-12T21:16:09.421Z,33.10
2019-03-12T21:19:09.286Z,32.40
2019-03-12T21:22:04.326Z,32.50
2019-03-12T21:24:47.641Z,32.00
2019-03-12T21:27:12.702Z,31.80
2019-03-12T21:29:43.807Z,31.30
2019-03-12T21:32:06.620Z,30.90
2019-03-12T21:34:27.895Z,30.50
2019-03-12T21:37:02.177Z,30.50
2019-03-12T21:39:23.529Z,29.80
2019-03-12T21:41:45.321Z,30.20
2019-03-12T21:44:06.612Z,30.40
2019-03-12T21:46:28.060Z,29.80
2019-03-12T21:48:49.366Z,29.70
2019-03-12T21:51:11.163Z,29.50
2019-03-12T21:53:32.764Z,29.40
2019-03-12T21:55:54.096Z,29.30
2019-03-12T21:58:15.410Z,29.60
2019-03-12T22:00:36.719Z,29.30
2019-03-12T22:02:58.071Z,29.70
2019-03-12T22:05:19.441Z,29.60
2019-03-12T22:07:41.215Z,29.90
2019-03-12T22:10:05.389Z,30.40
2019-03-12T22:12:27.788Z,31.50
2019-03-12T22:14:49.113Z,32.80
2019-03-12T22:17:10.467Z,34.70
2019-03-12T22:19:31.880Z,35.20
2019-03-12T22:22:10.843Z,35.40
2019-03-12T22:24:32.208Z,36.60
2019-03-12T22:26:53.469Z,37.50
2019-03-12T22:29:14.820Z,37.50
2019-03-12T22:31:36.712Z,37.70
2019-03-12T22:33:57.988Z,37.10
2019-03-12T22:36:19.376Z,37.00
2019-03-12T22:38:41.928Z,36.40
2019-03-12T22:41:03.356Z,36.40
2019-03-12T22:43:24.537Z,38.60
2019-03-12T22:45:46.198Z,39.00
2019-03-12T22:48:07.399Z,40.00
2019-03-12T22:50:28.770Z,42.30
2019-03-12T22:52:50.204Z,42.90
2019-03-12T22:55:12.707Z,44.10
2019-03-12T22:57:34.228Z,46.00
2019-03-12T23:00:18.132Z,46.70
2019-03-12T23:02:58.319Z,47.40
2019-03-12T23:05:38.130Z,48.70
2019-03-12T23:08:18.054Z,49.50
2019-03-12T23:10:42.596Z,49.50
2019-03-12T23:13:05.963Z,51.30
2019-03-12T23:15:29.357Z,53.60
2019-03-12T23:17:51.539Z,55.20
2019-03-12T23:20:18.944Z,55.70
2019-03-12T23:22:40.604Z,56.20
2019-03-12T23:25:02.237Z,56.80
2019-03-12T23:27:25.329Z,57.50
2019-03-12T23:29:46.639Z,58.70
2019-03-12T23:32:07.935Z,58.80
2019-03-12T23:34:29.501Z,59.20
2019-03-12T23:36:50.764Z,60.20
2019-03-12T23:39:12.065Z,61.60
2019-03-12T23:41:33.622Z,62.30
2019-03-12T23:43:54.928Z,62.20
2019-03-12T23:46:16.141Z,62.10
2019-03-12T23:48:37.529Z,63.10
2019-03-12T23:50:58.876Z,65.90
2019-03-12T23:53:20.792Z,66.80
2019-03-12T23:55:42.267Z,67.20
2019-03-12T23:58:03.712Z,66.80
